createdAt,value
2023-01-20T00:04:40.300Z,99957.22
2023-01-20T00:14:42.363Z,99963.31
2023-01-20T00:24:44.473Z,99961.94
2023-01-20T00:34:46.556Z,99968.84
2023-01-20T00:44:49.518Z,99974.50
2023-01-20T00:54:51.766Z,99980.81
2023-01-20T01:04:54.009Z,99993.75
2023-01-20T01:14:56.196Z,99999.63
2023-01-20T01:24:59.541Z,100008.84
2023-01-20T01:35:01.807Z,100017.28
2023-01-20T01:45:11.310Z,100018.38
2023-01-20T01:55:15.263Z,100032.81
2023-01-20T02:05:18.246Z,100042.03
2023-01-20T02:15:26.453Z,100032.94
2023-01-20T02:25:57.008Z,100041.78
2023-01-20T02:36:03.651Z,100062.84
2023-01-20T02:46:24.647Z,100055.25
2023-01-20T02:56:28.854Z,100065.97
2023-01-20T03:06:38.483Z,100069.28
2023-01-20T03:16:41.140Z,100067.13
2023-01-20T03:26:43.261Z,100087.91
2023-01-20T03:36:46.059Z,100101.81
2023-01-20T03:46:53.405Z,100102.63
2023-01-20T03:57:04.191Z,100100.38
2023-01-20T04:07:08.877Z,100112.16
2023-01-20T04:17:11.501Z,100109.25
2023-01-20T04:27:13.568Z,100118.53
2023-01-20T04:37:15.623Z,100140.81
2023-01-20T04:47:17.799Z,100138.44
2023-01-20T04:57:20.087Z,100138.41
2023-01-20T05:07:22.272Z,100153.06
2023-01-20T05:17:24.588Z,100165.28
2023-01-20T05:27:26.866Z,100162.97
2023-01-20T05:37:29.145Z,100180.19
2023-01-20T05:47:31.240Z,100186.81
2023-01-20T05:57:33.535Z,100196.97
2023-01-20T06:07:36.935Z,100199.66
2023-01-20T06:17:39.215Z,100205.06
2023-01-20T06:27:41.511Z,100215.44
2023-01-20T06:37:43.613Z,100224.91
2023-01-20T06:47:50.121Z,100230.94
2023-01-20T06:57:52.404Z,100234.69
2023-01-20T07:07:54.568Z,100252.78
2023-01-20T07:17:56.855Z,100264.19
2023-01-20T07:27:59.286Z,100267.19
2023-01-20T07:38:01.439Z,100270.88
2023-01-20T07:48:04.044Z,100277.09
2023-01-20T07:58:06.172Z,100304.03
2023-01-20T08:08:08.285Z,100301.94
2023-01-20T08:18:10.398Z,100314.41
2023-01-20T08:28:12.998Z,100320.25
2023-01-20T08:38:15.320Z,100332.25
2023-01-20T08:48:19.911Z,100337.09
2023-01-20T08:58:24.571Z,100358.03
2023-01-20T09:08:27.596Z,100354.63
2023-01-20T09:18:34.274Z,100366.25
2023-01-20T09:28:36.579Z,100370.78
2023-01-20T09:38:57.512Z,100379.59
2023-01-20T09:49:37.230Z,100390.81
2023-01-20T09:59:44.285Z,100400.09
2023-01-20T10:09:54.825Z,100403.38
2023-01-20T10:20:04.776Z,100412.44
2023-01-20T10:30:11.920Z,100416.53
2023-01-20T10:40:19.949Z,100403.03
2023-01-20T10:50:34.298Z,100392.69
2023-01-20T11:00:36.959Z,100394.63
2023-01-20T11:10:39.201Z,100390.03
2023-01-20T11:21:02.594Z,100398.31
2023-01-20T11:31:06.091Z,100406.81
2023-01-20T11:41:25.152Z,100417.91
2023-01-20T11:51:27.518Z,100409.34
2023-01-20T12:01:31.575Z,100409.09
2023-01-20T12:11:53.675Z,100407.13
2023-01-20T12:21:59.279Z,100414.16
2023-01-20T12:32:01.460Z,100422.41
2023-01-20T12:42:22.334Z,100409.03
2023-01-20T12:52:24.563Z,100426.75
2023-01-20T13:02:45.547Z,100437.00
2023-01-20T13:12:56.710Z,100441.06
2023-01-20T13:23:01.600Z,100440.97
2023-01-20T13:33:07.144Z,100452.84
2023-01-20T13:43:24.021Z,100465.03
2023-01-20T13:53:28.370Z,100479.88
2023-01-20T14:04:04.589Z,100477.91
2023-01-20T14:14:06.847Z,100484.97
2023-01-20T14:24:30.660Z,100498.50
2023-01-20T14:34:33.386Z,100511.34
2023-01-20T14:44:35.584Z,100541.56
2023-01-20T14:54:47.192Z,100555.19
2023-01-20T15:04:50.382Z,100569.03
2023-01-20T15:15:00.708Z,100580.69
2023-01-20T15:25:07.956Z,100598.34
2023-01-20T15:35:20.006Z,100605.78
2023-01-20T15:45:22.403Z,100617.97
2023-01-20T15:55:24.602Z,100632.94
2023-01-20T16:05:28.117Z,100653.44
2023-01-20T16:15:35.388Z,100661.28
2023-01-20T16:25:39.163Z,100674.78
2023-01-20T16:35:42.035Z,100702.88
2023-01-20T16:45:45.210Z,100714.31
2023-01-20T16:55:49.184Z,100730.28
2023-01-20T17:05:51.453Z,100745.47
2023-01-20T17:15:56.042Z,100756.03
2023-01-20T17:25:58.689Z,100779.63
2023-01-20T17:36:02.736Z,100796.00
2023-01-20T17:46:19.130Z,100815.03
2023-01-20T17:56:22.662Z,100848.88
2023-01-20T18:06:26.411Z,100854.09
2023-01-20T18:16:30.793Z,100864.84
2023-01-20T18:26:34.301Z,100870.38
2023-01-20T18:36:38.898Z,100894.63
2023-01-20T18:46:41.451Z,100899.56
2023-01-20T18:56:43.884Z,100920.50
2023-01-20T19:06:46.349Z,100926.88
2023-01-20T19:16:51.790Z,100937.00
2023-01-20T19:26:54.075Z,100959.19
2023-01-20T19:36:56.916Z,100970.81
2023-01-20T19:47:04.225Z,100989.19
2023-01-20T19:57:06.514Z,101002.53
2023-01-20T20:07:09.124Z,101016.69
2023-01-20T20:17:11.497Z,101028.41
2023-01-20T20:27:13.928Z,101046.47
2023-01-20T20:37:16.232Z,101065.38
2023-01-20T20:47:18.718Z,101084.06
2023-01-20T20:57:20.855Z,101093.69
2023-01-20T21:07:23.122Z,101117.06
2023-01-20T21:17:25.408Z,101133.56
2023-01-20T21:27:31.277Z,101148.63
2023-01-20T21:37:33.828Z,101156.16
2023-01-20T21:47:36.053Z,101164.13
2023-01-20T21:57:38.794Z,101171.78
2023-01-20T22:07:40.966Z,101191.56
2023-01-20T22:17:43.193Z,101207.34
2023-01-20T22:27:48.134Z,101236.44
2023-01-20T22:37:50.312Z,101264.50
2023-01-20T22:47:52.591Z,101271.00
2023-01-20T22:57:54.873Z,101272.34
2023-01-20T23:07:57.053Z,101287.91
2023-01-20T23:17:59.337Z,101297.53
2023-01-20T23:28:01.729Z,101312.00
2023-01-20T23:38:04.631Z,101327.84
2023-01-20T23:48:07.747Z,101337.44
2023-01-20T23:58:09.875Z,101350.53
